Time;durP1;ratioP1;P1;durP2;ratioP2;P2;SDS_P1;SDS_P2;PMS_P1;PMS_P2;Temp;Humidity;BMP_temperature;BMP_pressure;BME280_temperature;BME280_humidity;BME280_pressure;Samples;Min_cycle;Max_cycle;Signal;HPM_P1;HPM_P2
2022/05/24 00:01:22;;;;;;;9.30;3.20;;;;;;;18.67;49.42;93484.38;5122942;28;20043;-78
2022/05/24 00:03:48;;;;;;;5.68;3.17;;;;;;;18.71;49.07;93473.63;5122825;28;20110;-77
2022/05/24 00:06:15;;;;;;;7.20;3.45;;;;;;;18.73;48.88;93463.22;5104586;28;20050;-77
2022/05/24 00:08:40;;;;;;;8.52;3.55;;;;;;;18.75;49.39;93456.28;5122897;28;20231;-77
2022/05/24 00:11:06;;;;;;;10.27;3.60;;;;;;;18.79;49.64;93459.06;5122797;28;20023;-77
2022/05/24 00:13:32;;;;;;;5.63;3.33;;;;;;;18.81;50.15;93464.84;5124054;28;20199;-77
2022/05/24 00:15:57;;;;;;;8.00;3.28;;;;;;;18.81;51.22;93454.06;5126477;28;20339;-77
2022/05/24 00:18:27;;;;;;;6.85;3.28;;;;;;;18.80;52.10;93460.59;5126916;28;20027;-78
2022/05/24 00:20:58;;;;;;;10.07;3.30;;;;;;;18.79;52.37;93467.16;5126835;28;20065;-80
2022/05/24 00:23:25;;;;;;;7.90;3.78;;;;;;;18.74;50.93;93460.13;5126533;28;20019;-81
2022/05/24 00:25:54;;;;;;;11.05;3.30;;;;;;;18.71;50.46;93460.91;5126787;28;20026;-81
2022/05/24 00:28:21;;;;;;;6.90;3.22;;;;;;;18.67;50.35;93459.31;5126580;28;20023;-80
2022/05/24 00:30:48;;;;;;;9.52;3.30;;;;;;;18.61;50.49;93473.16;5126526;28;20215;-79
2022/05/24 00:33:15;;;;;;;9.18;3.70;;;;;;;18.45;51.13;93470.69;5126320;28;20270;-80
2022/05/24 00:35:42;;;;;;;6.50;3.22;;;;;;;18.44;51.30;93479.19;5126371;28;20027;-80
2022/05/24 00:38:10;;;;;;;9.77;3.30;;;;;;;18.43;51.98;93478.38;5126206;28;20025;-80
2022/05/24 00:40:45;;;;;;;5.22;2.83;;;;;;;18.38;51.69;93480.66;5126194;28;20050;-80
2022/05/24 00:44:09;;;;;;;6.88;3.33;;;;;;;18.28;51.67;93484.00;5126117;28;20334;-80
2022/05/24 00:46:58;;;;;;;4.97;2.72;;;;;;;18.17;52.17;93492.78;5043533;28;20025;-80
2022/05/24 00:49:39;;;;;;;5.93;2.90;;;;;;;18.17;52.20;93481.22;5043734;28;20060;-80
2022/05/24 00:52:10;;;;;;;6.40;3.50;;;;;;;18.13;52.37;93483.88;5103541;28;20230;-80
2022/05/24 00:54:36;;;;;;;5.38;2.60;;;;;;;18.11;52.31;93483.47;5125802;28;20345;-80
2022/05/24 00:57:26;;;;;;;6.20;3.08;;;;;;;18.10;52.67;93481.94;5125806;28;20076;-79
2022/05/24 01:00:14;;;;;;;5.05;2.67;;;;;;;18.07;52.72;93477.25;5125840;28;20047;-80
2022/05/24 01:02:41;;;;;;;4.97;2.80;;;;;;;18.01;52.94;93484.94;5125801;28;20218;-80
2022/05/24 01:05:14;;;;;;;6.57;2.85;;;;;;;18.00;52.78;93487.97;5125984;28;20024;-80
2022/05/24 01:07:40;;;;;;;4.93;2.80;;;;;;;18.01;52.85;93489.53;5125914;28;20336;-79
2022/05/24 01:10:15;;;;;;;4.53;2.78;;;;;;;17.99;53.18;93497.19;5125435;28;20023;-80
2022/05/24 01:12:59;;;;;;;11.02;3.30;;;;;;;17.99;52.68;93491.81;5125913;28;20063;-80
2022/05/24 01:15:26;;;;;;;9.35;3.42;;;;;;;17.93;53.01;93493.28;5125930;28;20084;-80
2022/05/24 01:17:53;;;;;;;9.32;3.63;;;;;;;17.92;53.63;93487.13;5125371;28;20045;-79
2022/05/24 01:20:20;;;;;;;9.63;3.90;;;;;;;17.89;54.14;93493.25;5125397;28;20076;-80
2022/05/24 01:23:16;;;;;;;7.15;4.00;;;;;;;17.90;53.81;93486.72;5125350;28;20226;-80
2022/05/24 01:26:06;;;;;;;8.38;3.10;;;;;;;17.88;53.53;93497.09;5124380;28;20299;-80
2022/05/24 01:28:38;;;;;;;6.82;3.97;;;;;;;17.84;53.82;93490.88;5125265;28;20027;-80
2022/05/24 01:31:04;;;;;;;5.18;3.08;;;;;;;17.79;53.46;93489.25;5125225;28;20043;-80
2022/05/24 01:36:15;;;;;;;7.13;3.35;;;;;;;17.77;53.73;93480.78;5125202;28;20027;-79
2022/05/24 01:38:49;;;;;;;7.00;3.58;;;;;;;17.77;54.14;93469.22;5124910;28;20015;-80
2022/05/24 01:41:20;;;;;;;7.20;3.42;;;;;;;17.74;54.62;93461.84;5125137;28;20275;-80
2022/05/24 01:43:48;;;;;;;7.07;2.93;;;;;;;17.71;54.65;93470.66;5125045;28;20024;-80
2022/05/24 01:46:18;;;;;;;5.43;3.08;;;;;;;17.62;54.82;93469.03;5125067;28;20264;-80
2022/05/24 01:49:29;;;;;;;10.63;3.42;;;;;;;17.59;55.14;93469.78;5124836;28;20219;-80
2022/05/24 01:52:00;;;;;;;8.23;3.85;;;;;;;17.55;55.19;93473.56;5113880;28;20035;-80
2022/05/24 01:54:29;;;;;;;6.57;3.22;;;;;;;17.49;55.15;93469.66;5124835;28;20027;-80
2022/05/24 01:57:17;;;;;;;9.27;3.53;;;;;;;17.45;54.98;93478.44;5124959;28;20043;-81
2022/05/24 01:59:45;;;;;;;7.85;3.05;;;;;;;17.43;54.95;93486.13;5124830;28;20084;-81
2022/05/24 02:02:11;;;;;;;9.40;3.45;;;;;;;17.39;54.72;93490.69;5124646;28;20088;-81
2022/05/24 02:04:36;;;;;;;6.55;3.20;;;;;;;17.39;55.05;93487.22;5124706;28;20019;-80
2022/05/24 02:07:11;;;;;;;8.10;2.85;;;;;;;17.38;54.90;93494.53;5124436;28;20030;-80
2022/05/24 02:09:40;;;;;;;7.18;2.97;;;;;;;17.32;54.66;93504.06;5124467;28;20023;-80
2022/05/24 02:12:11;;;;;;;5.75;3.05;;;;;;;17.31;54.37;93502.50;5124519;28;20015;-81
2022/05/24 02:14:41;;;;;;;8.80;2.95;;;;;;;17.24;54.43;93497.03;5124371;28;20020;-81
2022/05/24 02:17:11;;;;;;;8.35;3.22;;;;;;;17.22;53.49;93497.38;5124425;28;20028;-81
2022/05/24 02:19:42;;;;;;;4.35;2.40;;;;;;;17.17;53.97;93496.91;5124293;28;20069;-81
2022/05/24 02:22:14;;;;;;;8.10;3.42;;;;;;;17.10;54.61;93494.91;5106048;28;20322;-80
2022/05/24 02:24:40;;;;;;;13.23;3.38;;;;;;;17.09;54.25;93496.03;5124148;28;20011;-80
2022/05/24 02:27:05;;;;;;;7.68;3.20;;;;;;;17.01;55.35;93489.75;5124235;28;20023;-80
2022/05/24 02:29:31;;;;;;;6.82;2.95;;;;;;;17.00;55.20;93488.22;5124067;28;20091;-80
2022/05/24 02:31:57;;;;;;;5.50;2.90;;;;;;;17.01;54.82;93470.16;5124218;28;20015;-80
2022/05/24 02:34:23;;;;;;;8.57;3.08;;;;;;;17.02;55.45;93459.03;5123798;28;20058;-80
2022/05/24 02:36:48;;;;;;;7.88;2.85;;;;;;;17.06;55.15;93453.69;5123831;28;20090;-80
2022/05/24 02:39:14;;;;;;;9.38;3.30;;;;;;;17.04;55.29;93462.13;5123942;28;20035;-80
2022/05/24 02:41:39;;;;;;;5.93;2.95;;;;;;;17.02;55.02;93475.19;5123802;28;20023;-80
2022/05/24 02:44:14;;;;;;;9.27;3.25;;;;;;;16.95;54.72;93495.81;5123827;28;20047;-80
2022/05/24 02:46:43;;;;;;;7.10;3.60;;;;;;;16.87;55.36;93492.25;5123818;28;20020;-80
2022/05/24 02:49:09;;;;;;;9.55;2.95;;;;;;;16.79;55.76;93514.78;5123720;28;20278;-80
2022/05/24 02:51:37;;;;;;;6.95;3.15;;;;;;;16.77;56.17;93515.16;5123736;28;20023;-79
2022/05/24 02:54:04;;;;;;;5.60;3.15;;;;;;;16.69;56.21;93512.69;5105621;28;20090;-80
2022/05/24 02:56:29;;;;;;;7.15;2.83;;;;;;;16.61;56.28;93504.50;5123822;28;20027;-80
2022/05/24 02:58:55;;;;;;;6.20;3.20;;;;;;;16.62;56.64;93499.91;5123487;28;20020;-79
2022/05/24 03:01:23;;;;;;;7.63;3.13;;;;;;;16.58;56.74;93501.75;5123634;28;20019;-80
2022/05/24 03:03:51;;;;;;;12.52;3.83;;;;;;;16.53;56.55;93497.47;5123523;28;20046;-80
2022/05/24 03:06:17;;;;;;;6.85;3.58;;;;;;;16.54;57.08;93509.75;5123450;28;20377;-80
2022/05/24 03:14:24;;;;;;;6.22;3.15;;;;;;;16.56;57.57;93507.50;5123400;28;20394;-79
2022/05/24 03:16:52;;;;;;;9.13;3.80;;;;;;;16.56;57.32;93494.03;5123414;28;20019;-80
2022/05/24 03:19:18;;;;;;;6.50;3.60;;;;;;;16.56;56.47;93506.72;5123317;28;20030;-80
2022/05/24 03:21:44;;;;;;;9.60;4.10;;;;;;;16.55;57.04;93516.72;5123509;28;20112;-80
2022/05/24 03:24:10;;;;;;;7.75;3.15;;;;;;;16.56;57.45;93507.50;5123277;28;20023;-80
2022/05/24 03:26:37;;;;;;;6.43;3.10;;;;;;;16.59;56.88;93500.63;5123438;28;20030;-80
2022/05/24 03:29:03;;;;;;;15.63;3.53;;;;;;;16.57;56.44;93497.53;5123170;28;20090;-80
2022/05/24 03:31:29;;;;;;;7.55;3.50;;;;;;;16.58;57.83;93502.53;5123567;28;20031;-80
2022/05/24 03:33:55;;;;;;;8.82;3.30;;;;;;;16.61;57.88;93496.44;5123027;28;20023;-79
2022/05/24 03:36:20;;;;;;;10.55;3.47;;;;;;;16.62;58.02;93497.97;5123145;28;20035;-79
2022/05/24 03:38:46;;;;;;;5.05;3.25;;;;;;;16.64;58.00;93501.09;5123393;28;20024;-79
2022/05/24 03:41:12;;;;;;;6.00;3.20;;;;;;;16.67;58.02;93498.81;5123169;28;20373;-79
2022/05/24 03:43:38;;;;;;;8.38;4.05;;;;;;;16.67;58.30;93504.19;5123073;28;20314;-79
2022/05/24 03:46:07;;;;;;;10.55;3.70;;;;;;;16.67;58.59;93501.50;5123178;28;20026;-78
2022/05/24 03:48:34;;;;;;;10.45;3.78;;;;;;;16.68;58.59;93513.84;5124326;28;20048;-80
2022/05/24 03:50:59;;;;;;;9.35;3.80;;;;;;;16.70;58.13;93514.25;5127371;28;20020;-79
2022/05/24 03:53:26;;;;;;;8.75;3.10;;;;;;;16.72;57.70;93509.28;5127033;28;20043;-80
2022/05/24 03:55:52;;;;;;;6.05;2.95;;;;;;;16.75;58.04;93511.25;5127190;28;20031;-79
2022/05/24 03:58:18;;;;;;;7.05;3.38;;;;;;;16.76;58.32;93510.88;5127189;28;20034;-80
2022/05/24 04:00:45;;;;;;;9.75;3.75;;;;;;;16.80;58.54;93508.25;5127071;28;20396;-80
2022/05/24 04:03:12;;;;;;;7.25;3.75;;;;;;;16.80;58.44;93509.03;5126867;28;20027;-80
2022/05/24 04:05:38;;;;;;;9.60;3.42;;;;;;;16.85;58.69;93510.66;5127127;28;20020;-80
2022/05/24 04:08:04;;;;;;;7.10;3.70;;;;;;;16.84;58.38;93523.34;5127141;28;20369;-80
2022/05/24 04:10:31;;;;;;;4.60;3.65;;;;;;;16.85;58.44;93524.13;5127120;28;20083;-80
2022/05/24 04:12:57;;;;;;;5.65;3.40;;;;;;;16.86;57.69;93520.31;5126846;28;20092;-80
2022/05/24 04:15:23;;;;;;;9.25;4.22;;;;;;;16.86;57.10;93531.06;5126618;28;20023;-80
2022/05/24 04:17:50;;;;;;;10.70;4.93;;;;;;;16.86;57.21;93536.47;5126538;28;20059;-80
2022/05/24 04:20:16;;;;;;;7.68;3.30;;;;;;;16.81;57.55;93528.66;5126681;28;20094;-80
2022/05/24 04:22:42;;;;;;;8.85;3.55;;;;;;;16.80;58.48;93532.47;5126578;28;20020;-78
2022/05/24 04:25:08;;;;;;;14.50;3.78;;;;;;;16.82;57.08;93530.25;5126729;28;20106;-78
2022/05/24 04:27:33;;;;;;;7.38;3.70;;;;;;;16.90;57.72;93534.59;5126766;28;20099;-78
2022/05/24 04:29:59;;;;;;;10.20;4.45;;;;;;;16.91;57.05;93528.06;5126585;28;20321;-79
2022/05/24 04:32:25;;;;;;;11.57;4.30;;;;;;;16.96;56.14;93524.31;5126454;28;20034;-78
2022/05/24 04:34:50;;;;;;;7.93;4.03;;;;;;;17.02;56.20;93525.56;5126202;28;20090;-79
2022/05/24 04:37:16;;;;;;;9.07;4.72;;;;;;;17.04;56.56;93521.34;5126232;28;20217;-80
2022/05/24 04:39:42;;;;;;;11.80;4.20;;;;;;;17.04;56.49;93521.34;5126151;28;20019;-80
2022/05/24 04:42:20;;;;;;;12.90;4.80;;;;;;;17.05;56.48;93517.50;5126214;28;20026;-80
2022/05/24 04:44:48;;;;;;;16.75;5.53;;;;;;;17.10;56.47;93510.28;5126080;28;20020;-80
2022/05/24 04:47:14;;;;;;;7.25;3.80;;;;;;;17.09;55.71;93509.50;5126048;28;20039;-79
2022/05/24 04:49:42;;;;;;;11.90;4.18;;;;;;;17.15;56.82;93513.44;5126164;28;20100;-79
2022/05/24 04:52:10;;;;;;;13.13;4.78;;;;;;;17.13;57.02;93518.41;5126114;28;20023;-78
2022/05/24 04:54:38;;;;;;;8.07;4.22;;;;;;;17.14;56.35;93522.66;5125770;28;20310;-78
2022/05/24 04:57:04;;;;;;;17.63;5.32;;;;;;;17.19;56.83;93527.72;5126007;28;20046;-78
2022/05/24 04:59:29;;;;;;;12.40;5.07;;;;;;;17.22;57.10;93531.63;5106625;28;20329;-79
2022/05/24 05:01:55;;;;;;;11.18;4.38;;;;;;;17.27;57.26;93535.91;5125269;28;20334;-79
2022/05/24 05:04:21;;;;;;;9.30;4.82;;;;;;;17.33;56.51;93547.94;5126001;28;20015;-80
2022/05/24 05:06:47;;;;;;;17.08;5.45;;;;;;;17.39;56.61;93558.03;5125675;28;20039;-80
2022/05/24 05:09:14;;;;;;;15.32;5.85;;;;;;;17.37;56.45;93549.53;5125421;28;20020;-79
2022/05/24 05:11:39;;;;;;;11.80;5.57;;;;;;;17.37;56.08;93549.53;5125697;28;20034;-79
2022/05/24 05:14:05;;;;;;;18.80;5.05;;;;;;;17.43;56.10;93566.94;5125650;28;20036;-79
2022/05/24 05:16:31;;;;;;;11.80;4.45;;;;;;;17.47;55.58;93568.91;5125489;28;20283;-81
2022/05/24 05:18:56;;;;;;;13.50;6.25;;;;;;;17.47;55.62;93566.22;5125500;28;20024;-81
2022/05/24 05:21:22;;;;;;;15.35;5.90;;;;;;;17.54;56.00;93560.91;5125569;28;20262;-80
2022/05/24 05:23:47;;;;;;;8.50;4.57;;;;;;;17.61;55.31;93567.19;5125499;28;20082;-79
2022/05/24 05:26:14;;;;;;;17.05;4.60;;;;;;;17.67;54.91;93562.28;5125332;28;20094;-79
2022/05/24 05:28:40;;;;;;;16.45;5.18;;;;;;;17.72;55.21;93575.41;5125292;28;20027;-79
2022/05/24 05:31:16;;;;;;;19.65;5.07;;;;;;;17.73;54.95;93576.97;5125444;28;20097;-80
2022/05/24 05:33:43;;;;;;;11.32;5.20;;;;;;;17.68;55.37;93579.22;5125306;28;20094;-79
2022/05/24 05:36:08;;;;;;;12.63;4.47;;;;;;;17.69;55.77;93578.84;5125217;28;20198;-80
2022/05/24 05:38:34;;;;;;;13.60;4.32;;;;;;;17.75;55.74;93577.41;5125323;28;20027;-80
2022/05/24 05:40:59;;;;;;;15.77;5.13;;;;;;;17.83;55.44;93581.00;5125105;28;20252;-80
2022/05/24 05:43:25;;;;;;;12.93;5.38;;;;;;;17.85;55.05;93581.41;5124726;28;20049;-80
2022/05/24 05:45:57;;;;;;;18.17;5.60;;;;;;;17.82;54.63;93584.78;5125065;28;20231;-81
2022/05/24 05:48:23;;;;;;;26.53;5.37;;;;;;;17.81;54.94;93586.72;5106703;28;20039;-80
2022/05/24 05:50:48;;;;;;;13.43;5.65;;;;;;;17.92;55.34;93576.09;5124741;28;20020;-82
2022/05/24 05:53:17;;;;;;;13.00;4.82;;;;;;;18.03;55.19;93584.31;5125031;28;20055;-81
2022/05/24 05:55:42;;;;;;;10.95;5.45;;;;;;;18.11;54.28;93583.25;5124796;28;20111;-82
2022/05/24 05:58:08;;;;;;;13.23;5.10;;;;;;;18.09;54.69;93582.84;5124756;28;20318;-80
2022/05/24 06:00:35;;;;;;;15.90;5.68;;;;;;;18.04;54.28;93591.28;5124848;28;20314;-81
2022/05/24 06:03:01;;;;;;;11.18;4.53;;;;;;;17.99;54.56;93596.97;5124908;28;20023;-80
2022/05/24 06:05:27;;;;;;;14.63;5.75;;;;;;;18.02;54.74;93593.56;5124641;28;20035;-80
2022/05/24 06:07:55;;;;;;;15.25;5.78;;;;;;;18.09;54.75;93599.03;5124637;28;20129;-82
2022/05/24 06:10:20;;;;;;;17.23;5.88;;;;;;;18.09;54.57;93596.31;5106210;28;20099;-79
2022/05/24 06:12:47;;;;;;;14.02;5.80;;;;;;;18.13;54.75;93605.22;5124174;28;20020;-80
2022/05/24 06:15:13;;;;;;;36.53;7.90;;;;;;;18.22;55.10;93597.66;5123184;28;20027;-82
2022/05/24 06:17:46;;;;;;;15.50;5.20;;;;;;;18.30;54.98;93611.22;5122876;28;20015;-82
2022/05/24 06:20:12;;;;;;;13.20;5.05;;;;;;;18.40;54.30;93611.34;5123346;28;20330;-82
2022/05/24 06:22:38;;;;;;;10.73;5.28;;;;;;;18.40;54.02;93618.69;5123647;28;20039;-78
2022/05/24 06:25:05;;;;;;;19.58;4.47;;;;;;;18.40;53.52;93618.69;5123262;28;20192;-88
2022/05/24 06:27:30;;;;;;;19.00;6.65;;;;;;;18.49;53.77;93619.16;5123096;28;20092;-89
2022/05/24 06:29:56;;;;;;;10.30;5.18;;;;;;;18.50;53.90;93612.63;5104777;28;20015;-89
2022/05/24 06:32:21;;;;;;;9.93;5.05;;;;;;;18.59;53.95;93605.00;5122929;28;20349;-88
2022/05/24 06:34:48;;;;;;;9.18;5.47;;;;;;;18.68;53.32;93607.38;5122153;28;20043;-76
2022/05/24 06:37:15;;;;;;;12.23;5.57;;;;;;;18.73;53.02;93595.50;5122411;28;20023;-76
2022/05/24 06:39:41;;;;;;;12.02;5.10;;;;;;;18.76;52.96;93592.81;5122334;28;20023;-77
2022/05/24 06:42:07;;;;;;;15.32;6.18;;;;;;;18.84;52.49;93588.28;5123819;28;20377;-76
2022/05/24 06:44:32;;;;;;;17.10;6.38;;;;;;;18.94;52.31;93581.44;5123808;28;20027;-76
2022/05/24 06:46:57;;;;;;;10.75;5.20;;;;;;;18.86;52.67;93571.72;5105461;28;20034;-76
2022/05/24 06:49:23;;;;;;;14.27;5.13;;;;;;;18.92;52.20;93564.84;5123655;28;20103;-76
2022/05/24 06:51:48;;;;;;;14.07;5.22;;;;;;;18.94;52.17;93576.81;5123487;28;20023;-76
2022/05/24 06:54:14;;;;;;;10.15;4.78;;;;;;;18.99;53.39;93557.59;5123461;28;20327;-77
2022/05/24 06:56:39;;;;;;;10.40;4.65;;;;;;;19.16;53.84;93563.50;5123795;28;20039;-77
2022/05/24 07:04:32;;;;;;;17.05;5.35;;;;;;;19.38;51.74;93570.59;5123531;28;20023;-76
2022/05/24 07:06:58;;;;;;;17.27;5.10;;;;;;;19.51;51.33;93570.31;5123369;28;20213;-76
2022/05/24 07:09:28;;;;;;;16.27;5.65;;;;;;;19.59;50.53;93571.91;5123226;28;20039;-75
2022/05/24 07:11:54;;;;;;;12.05;5.32;;;;;;;19.66;50.70;93574.63;5123387;28;20088;-76
2022/05/24 07:14:19;;;;;;;13.95;5.30;;;;;;;19.79;50.91;93573.19;5123236;28;20027;-76
2022/05/24 07:16:45;;;;;;;14.68;5.30;;;;;;;19.97;50.57;93572.53;5123103;28;20020;-76
2022/05/24 07:19:10;;;;;;;9.80;5.57;;;;;;;20.12;49.25;93586.88;5123220;28;20246;-76
2022/05/24 07:21:35;;;;;;;17.77;5.68;;;;;;;20.17;48.97;93579.19;5123261;28;20072;-76
2022/05/24 07:24:01;;;;;;;10.35;5.18;;;;;;;20.24;48.19;93590.03;5122191;28;20136;-77
2022/05/24 07:26:26;;;;;;;9.25;5.85;;;;;;;20.32;48.41;93592.78;5122996;28;20023;-76
2022/05/24 07:28:52;;;;;;;10.98;5.28;;;;;;;20.38;48.48;93588.53;5123274;28;20043;-76
2022/05/24 07:31:17;;;;;;;14.38;5.63;;;;;;;20.46;47.20;93576.56;5123177;28;20374;-77
2022/05/24 07:33:42;;;;;;;13.25;5.65;;;;;;;20.54;47.89;93586.25;5105048;28;20030;-77
2022/05/24 07:36:08;;;;;;;14.60;5.90;;;;;;;20.66;48.05;93578.97;5123413;28;20015;-77
2022/05/24 07:38:34;;;;;;;10.43;5.28;;;;;;;20.80;47.97;93582.50;5123116;28;20011;-76
2022/05/24 07:46:29;;;;;;;9.63;6.07;;;;;;;21.32;47.29;93575.94;5123160;28;20072;-77
2022/05/24 07:48:55;;;;;;;16.52;5.47;;;;;;;21.48;46.69;93575.56;5122906;28;20068;-77
2022/05/24 07:51:20;;;;;;;17.27;5.25;;;;;;;21.60;45.71;93572.47;5123118;28;20147;-76
2022/05/24 07:53:46;;;;;;;12.02;5.05;;;;;;;21.73;45.83;93573.59;5121355;28;20047;-78
2022/05/24 07:56:15;;;;;;;15.35;5.63;;;;;;;21.83;45.57;93575.50;5122043;28;20213;-77
2022/05/24 07:58:41;;;;;;;12.40;5.00;;;;;;;21.88;44.25;93571.63;5122734;28;20062;-76
2022/05/24 08:01:06;;;;;;;11.45;5.35;;;;;;;21.94;45.00;93574.69;5123170;28;20326;-77
2022/05/24 08:03:32;;;;;;;22.15;5.43;;;;;;;22.00;44.76;93564.97;5122749;28;20035;-77
2022/05/24 08:05:57;;;;;;;9.50;4.57;;;;;;;22.07;44.61;93559.53;5123018;28;20043;-77
2022/05/24 08:08:23;;;;;;;14.88;4.97;;;;;;;22.16;44.41;93553.69;5123053;28;20322;-77
2022/05/24 08:10:49;;;;;;;8.55;4.32;;;;;;;22.22;44.09;93569.16;5123036;28;20282;-77
2022/05/24 08:13:16;;;;;;;12.50;5.50;;;;;;;22.31;44.37;93568.00;5122742;28;20164;-77
2022/05/24 08:15:42;;;;;;;10.88;5.43;;;;;;;22.34;44.50;93567.22;5122600;28;20020;-77
2022/05/24 08:18:08;;;;;;;13.23;4.68;;;;;;;22.33;44.75;93576.53;5122765;28;20045;-77
2022/05/24 08:20:34;;;;;;;15.18;5.25;;;;;;;22.35;43.62;93574.97;5122936;28;20016;-77
2022/05/24 08:23:00;;;;;;;15.65;5.18;;;;;;;22.33;43.44;93580.03;5122830;28;20020;-75
2022/05/24 08:25:27;;;;;;;13.82;5.63;;;;;;;22.18;43.85;93573.06;5122677;28;20306;-76
2022/05/24 08:27:53;;;;;;;14.77;5.07;;;;;;;22.16;44.41;93572.69;5122623;28;20020;-76
2022/05/24 08:30:19;;;;;;;18.33;6.15;;;;;;;22.15;44.66;93569.22;5122777;28;20041;-76
2022/05/24 08:32:47;;;;;;;11.00;5.15;;;;;;;22.12;44.93;93569.97;5122657;28;20095;-76
2022/05/24 08:35:14;;;;;;;12.07;5.30;;;;;;;22.12;45.16;93575.41;5124792;28;20054;-76
2022/05/24 08:37:41;;;;;;;16.55;5.07;;;;;;;22.21;45.46;93573.06;5126416;28;20087;-76
2022/05/24 08:40:07;;;;;;;12.50;5.15;;;;;;;22.32;44.92;93573.03;5126395;28;20226;-76
2022/05/24 08:42:58;;;;;;;15.50;5.10;;;;;;;22.47;45.11;93562.91;5126171;28;20043;-76
2022/05/24 08:48:37;;;;;;;12.35;4.57;;;;;;;22.47;43.81;93565.63;5125914;28;20046;-76
2022/05/24 08:51:18;;;;;;;13.73;6.53;;;;;;;22.46;44.32;93583.06;5126172;28;20215;-76
2022/05/24 08:53:47;;;;;;;12.60;4.95;;;;;;;22.53;44.54;93571.38;5125927;28;20061;-76
2022/05/24 08:56:19;;;;;;;9.60;5.05;;;;;;;22.62;43.63;93572.50;5125954;28;20086;-76
2022/05/24 08:59:10;;;;;;;11.77;5.28;;;;;;;22.67;43.33;93581.41;5125919;28;20264;-76
2022/05/24 09:01:35;;;;;;;15.85;5.50;;;;;;;22.78;43.77;93582.13;5125672;28;20039;-76
2022/05/24 09:04:09;;;;;;;18.80;5.47;;;;;;;22.88;43.89;93575.84;5125576;28;20063;-76
2022/05/24 09:06:56;;;;;;;11.10;5.22;;;;;;;22.92;43.40;93578.53;5125627;28;20023;-77
2022/05/24 09:09:52;;;;;;;12.07;5.07;;;;;;;22.95;43.38;93583.19;5125441;28;20225;-77
2022/05/24 09:12:29;;;;;;;14.70;5.10;;;;;;;22.84;43.42;93583.25;5125743;28;20032;-76
2022/05/24 09:18:36;;;;;;;19.73;5.20;;;;;;;22.83;44.45;93562.69;5125528;28;20174;-77
2022/05/24 09:21:02;;;;;;;10.27;5.10;;;;;;;23.03;44.69;93561.00;5125412;28;20334;-77
2022/05/24 09:23:47;;;;;;;15.85;5.47;;;;;;;23.15;43.71;93550.84;5125135;28;20314;-77
2022/05/24 09:26:20;;;;;;;15.95;4.75;;;;;;;23.32;44.21;93555.34;5125011;28;20024;-77
2022/05/24 09:29:18;;;;;;;11.68;4.75;;;;;;;23.55;43.77;93548.53;5125110;28;20039;-77
2022/05/24 09:31:49;;;;;;;11.60;5.45;;;;;;;23.70;43.83;93551.91;5091066;28;20338;-76
2022/05/24 09:34:17;;;;;;;12.87;4.80;;;;;;;23.88;43.17;93547.09;5125403;28;20023;-76
2022/05/24 09:36:58;;;;;;;10.68;4.55;;;;;;;24.07;42.91;93542.97;5125423;28;20288;-76
2022/05/24 09:39:31;;;;;;;14.52;4.38;;;;;;;24.23;42.43;93531.50;5125232;28;20027;-76
2022/05/24 09:41:59;;;;;;;17.30;4.88;;;;;;;24.40;42.75;93548.81;5124917;28;20079;-76
2022/05/24 09:44:28;;;;;;;14.10;3.97;;;;;;;24.49;42.17;93553.78;5125081;28;20247;-75
2022/05/24 09:46:54;;;;;;;18.17;4.93;;;;;;;24.49;41.57;93557.25;5123918;28;20041;-77
2022/05/24 09:49:32;;;;;;;15.80;4.53;;;;;;;24.60;41.13;93555.19;5125054;28;20081;-76
2022/05/24 09:52:11;;;;;;;12.77;5.53;;;;;;;24.60;41.18;93544.28;5125043;28;20225;-77
2022/05/24 09:54:59;;;;;;;10.80;4.45;;;;;;;24.61;41.76;93545.84;5124825;28;20071;-76
2022/05/24 09:57:29;;;;;;;11.20;4.35;;;;;;;24.81;42.08;93556.06;5124655;28;20023;-77
2022/05/24 10:00:03;;;;;;;17.10;4.50;;;;;;;24.90;41.97;93555.56;5124743;28;20019;-77
2022/05/24 10:02:31;;;;;;;16.52;4.35;;;;;;;25.08;41.33;93541.69;5124727;28;20035;-77
2022/05/24 10:04:58;;;;;;;14.60;5.22;;;;;;;25.29;41.55;93551.50;5124669;28;20022;-77
2022/05/24 10:07:33;;;;;;;11.13;4.07;;;;;;;25.46;40.90;93544.19;5124521;28;20027;-77
2022/05/24 10:10:10;;;;;;;10.43;4.45;;;;;;;25.60;40.49;93541.22;5124579;28;20087;-77
2022/05/24 10:12:51;;;;;;;16.40;5.38;;;;;;;25.71;39.75;93538.31;5124600;28;20023;-76
2022/05/24 10:15:31;;;;;;;11.90;5.05;;;;;;;25.67;39.40;93540.34;5124309;28;20065;-76
2022/05/24 10:18:28;;;;;;;14.60;4.95;;;;;;;25.74;41.46;93540.19;5124281;28;20030;-76
2022/05/24 10:21:15;;;;;;;14.02;4.55;;;;;;;25.86;40.87;93539.59;5124170;28;20023;-76
2022/05/24 10:23:53;;;;;;;9.88;4.20;;;;;;;25.97;40.38;93544.88;5124225;28;20027;-76
2022/05/24 10:26:30;;;;;;;12.88;4.85;;;;;;;26.06;39.04;93538.88;5124076;28;20091;-76
2022/05/24 10:29:29;;;;;;;11.55;4.75;;;;;;;26.13;40.53;93542.22;5124287;28;20028;-77
2022/05/24 10:32:04;;;;;;;10.30;4.18;;;;;;;26.29;39.25;93532.56;5123846;28;20027;-76
2022/05/24 10:41:02;;;;;;;8.38;4.40;;;;;;;26.54;38.77;93534.75;5124063;28;20071;-76
2022/05/24 10:44:06;;;;;;;13.60;3.92;;;;;;;26.76;38.46;93537.81;5124005;28;20038;-76
2022/05/24 10:46:43;;;;;;;9.50;4.18;;;;;;;26.86;38.03;93517.69;5113860;28;20256;-76
2022/05/24 10:49:26;;;;;;;13.65;4.53;;;;;;;26.84;38.67;93525.53;5123548;28;20055;-76
2022/05/24 10:52:00;;;;;;;14.80;4.38;;;;;;;26.97;39.11;93512.75;5123818;28;20202;-77
2022/05/24 10:54:48;;;;;;;10.52;4.45;;;;;;;27.08;38.54;93511.72;5123378;28;20099;-77
2022/05/24 10:57:19;;;;;;;7.43;3.75;;;;;;;27.13;38.09;93513.94;5123472;28;20054;-77
2022/05/24 10:59:57;;;;;;;8.90;4.00;;;;;;;27.12;38.51;93520.59;5123672;28;20019;-77
2022/05/24 11:02:40;;;;;;;8.18;3.60;;;;;;;27.25;38.44;93524.22;5123105;28;20039;-77
2022/05/24 11:05:37;;;;;;;9.07;4.25;;;;;;;27.39;38.42;93515.66;5123484;28;20033;-77
2022/05/24 11:08:21;;;;;;;12.77;4.28;;;;;;;27.52;37.99;93514.94;5110940;28;20035;-77
2022/05/24 11:10:48;;;;;;;12.52;4.38;;;;;;;27.70;37.99;93512.53;5123199;28;20191;-76
2022/05/24 11:13:42;;;;;;;7.95;4.20;;;;;;;27.83;37.43;93501.63;5123272;28;20026;-76
2022/05/24 11:16:15;;;;;;;9.80;4.38;;;;;;;27.98;37.00;93494.59;5123113;28;20036;-76
2022/05/24 11:18:42;;;;;;;15.13;4.47;;;;;;;28.14;36.77;93493.75;5123342;28;20027;-76
2022/05/24 11:21:25;;;;;;;6.88;4.15;;;;;;;28.21;36.00;93485.34;5123227;28;20314;-76
2022/05/24 11:24:18;;;;;;;9.73;3.95;;;;;;;28.45;36.90;93490.53;5123109;28;20030;-77
2022/05/24 11:26:52;;;;;;;16.35;4.53;;;;;;;28.59;35.94;93487.38;5123316;28;20028;-76
2022/05/24 11:29:25;;;;;;;14.40;4.35;;;;;;;28.72;36.06;93481.13;5122930;28;20262;-76
2022/05/24 11:31:58;;;;;;;8.93;4.38;;;;;;;28.74;35.59;93467.75;5104948;28;20027;-77
2022/05/24 11:34:40;;;;;;;18.45;4.47;;;;;;;28.81;34.75;93462.81;5123102;28;20024;-77
2022/05/24 11:37:23;;;;;;;11.95;4.28;;;;;;;28.88;35.03;93466.53;5123049;28;20031;-76
2022/05/24 11:39:49;;;;;;;9.68;3.97;;;;;;;28.89;35.32;93457.13;5123134;28;20225;-77
2022/05/24 11:42:28;;;;;;;11.00;4.63;;;;;;;29.03;35.44;93462.16;5123253;28;20047;-77
2022/05/24 11:44:57;;;;;;;7.55;3.83;;;;;;;29.15;34.66;93449.66;5122972;28;20026;-77
2022/05/24 11:47:34;;;;;;;10.82;4.40;;;;;;;29.32;34.87;93455.75;5123052;28;20234;-77
2022/05/24 11:50:06;;;;;;;13.60;4.35;;;;;;;29.51;34.27;93440.97;5123046;28;20030;-77
2022/05/24 11:52:45;;;;;;;15.32;4.40;;;;;;;29.71;34.33;93442.69;5123068;28;20023;-77
2022/05/24 11:56:09;;;;;;;16.65;4.10;;;;;;;29.90;32.88;93435.34;5123111;28;20054;-77
2022/05/24 11:58:34;;;;;;;11.05;3.97;;;;;;;29.79;33.32;93433.72;5123191;28;20043;-77
2022/05/24 12:01:05;;;;;;;6.80;4.00;;;;;;;29.82;33.50;93420.31;5123201;28;20019;-77
2022/05/24 12:09:55;;;;;;;9.75;3.90;;;;;;;30.31;32.72;93419.75;5125747;28;20031;-78
2022/05/24 12:12:30;;;;;;;9.18;3.92;;;;;;;30.50;32.22;93415.09;5127834;28;20023;-77
2022/05/24 12:15:17;;;;;;;11.70;4.78;;;;;;;30.66;32.45;93425.84;5127164;28;20077;-77
2022/05/24 12:17:44;;;;;;;6.55;3.85;;;;;;;30.78;32.37;93407.69;5126650;28;20047;-77
2022/05/24 12:20:34;;;;;;;9.18;4.35;;;;;;;30.83;31.26;93400.81;5126505;28;20020;-78
2022/05/24 12:23:18;;;;;;;10.55;4.15;;;;;;;30.67;31.92;93393.59;5126738;28;20024;-77
2022/05/24 12:26:12;;;;;;;12.43;4.40;;;;;;;30.79;32.20;93403.72;5126971;28;20039;-77